Garland City, Arkansas
Current Conditions -  °F | °C
As of 5:53 PM on Wednesday 22 Oct 2014 (Local Time) from KTXK Reporting Station
Clear Clear  
Wind Chill: 22°   Ceiling: Unl
Heat Index: 22°   Visibility: 10mi
Dew Point: 11°   Wind: 5mph
Humidity: 51%   Direction: 80°E
Pressure: 30.11"   Gusts: NA
Location:  33.35°N, 93.75°W
Report Text: KTXK 222253Z 08004KT 10SM CLR 22/11 A3011 RMK AO2 SLP194 T02170111
Loading
Personal Weather Stations






























Interactive Weather Map
Tropical Storm Tracking
New forecast layout! Learn more

10-Day Weather Forecast

Advertisements
Track Severe Weather on mobile